Observation data for Floydada on 08/14/2020      Previous  Date       Current Mesonet Observations  Soil Data  Daily Summary Page  Observations in Plain Language
KFLS 140500Z 31005KT 28/10 A2999 RMK A01 T02760104  RH  035%=      5-min Rain = 0
KFLS 140505Z 32004KT 28/11 A2999 RMK A01 T02800105  RH  034%=      5-min Rain = 0
KFLS 140510Z 22005KT 28/10 A2999 RMK A01 T02770102  RH  034%=      5-min Rain = 0
KFLS 140515Z 21006G11KT 31/09 A2999 RMK A01 T03110090  RH  026%=      5-min Rain = 0
KFLS 140520Z 30004KT 30/10 A2998 RMK A01 T03000101  RH  030%=      5-min Rain = 0
KFLS 140525Z 26003KT 30/10 A2999 RMK A01 T02990100  RH  030%=      5-min Rain = 0
KFLS 140530Z 29004KT 31/09 A2999 RMK A01 T03080091  RH  026%=      5-min Rain = 0
KFLS 140535Z 28005KT 31/08 A2999 RMK A01 T03110083  RH  025%=      5-min Rain = 0
KFLS 140540Z 21005KT 32/08 A2999 RMK A01 T03180080  RH  023%=      5-min Rain = 0
KFLS 140545Z 17004G9KT 32/08 A2999 RMK A01 T03160079  RH  023%=      5-min Rain = 0
KFLS 140550Z 19004G11KT 32/08 A2999 RMK A01 T03220077  RH  022%=      5-min Rain = 0
KFLS 140555Z 23003KT 32/08 A2999 RMK A01 T03180078  RH  023%=      5-min Rain = 0
KFLS 140600Z 24004KT 31/08 A2999 RMK A01 T03140079  RH  024%=      5-min Rain = 0
KFLS 140605Z 21004KT 31/08 A2999 RMK A01 T03100080  RH  024%=      5-min Rain = 0
KFLS 140610Z 20003KT 30/08 A2999 RMK A01 T03020081  RH  026%=      5-min Rain = 0
KFLS 140615Z 15002KT 30/08 A30 RMK A01 T03000080  RH  026%=      5-min Rain = 0
KFLS 140620Z 18002KT 30/08 A30 RMK A01 T02990080  RH  026%=      5-min Rain = 0
KFLS 140625Z 19004KT 30/08 A30 RMK A01 T02960081  RH  026%=      5-min Rain = 0
KFLS 140630Z 19004KT 29/08 A30 RMK A01 T02920082  RH  027%=      5-min Rain = 0
KFLS 140635Z 18004KT 28/08 A2999 RMK A01 T02840084  RH  029%=      5-min Rain = 0
KFLS 140640Z 18007KT 29/09 A2999 RMK A01 T02870085  RH  029%=      5-min Rain = 0
KFLS 140645Z 19008KT 29/09 A2999 RMK A01 T02880087  RH  029%=      5-min Rain = 0
KFLS 140650Z 18007KT 28/09 A2999 RMK A01 T02810087  RH  030%=      5-min Rain = 0
KFLS 140655Z 19007KT 28/09 A2999 RMK A01 T02820088  RH  030%=      5-min Rain = 0
KFLS 140700Z 19007KT 28/09 A2999 RMK A01 T02750089  RH  031%=      5-min Rain = 0
KFLS 140705Z 19007KT 27/09 A2999 RMK A01 T02670089  RH  033%=      5-min Rain = 0
KFLS 140710Z 19007KT 27/09 A2999 RMK A01 T02680090  RH  033%=      5-min Rain = 0
KFLS 140715Z 19007KT 26/09 A2998 RMK A01 T02640091  RH  034%=      5-min Rain = 0
KFLS 140720Z 19007KT 26/09 A2998 RMK A01 T02590092  RH  035%=      5-min Rain = 0
KFLS 140725Z 20008KT 26/10 A2998 RMK A01 T02580095  RH  036%=      5-min Rain = 0
KFLS 140730Z 21008KT 26/10 A2998 RMK A01 T02570097  RH  037%=      5-min Rain = 0
KFLS 140735Z 21008KT 26/10 A2998 RMK A01 T02600097  RH  037%=      5-min Rain = 0
KFLS 140740Z 22007KT 26/10 A2998 RMK A01 T02610096  RH  036%=      5-min Rain = 0
KFLS 140745Z 22007KT 26/10 A2998 RMK A01 T02620096  RH  036%=      5-min Rain = 0
KFLS 140750Z 22007KT 26/10 A2998 RMK A01 T02610097  RH  036%=      5-min Rain = 0
KFLS 140755Z 21007KT 26/10 A2998 RMK A01 T02590097  RH  037%=      5-min Rain = 0
KFLS 140800Z 21007KT 26/10 A2998 RMK A01 T02550098  RH  038%=      5-min Rain = 0
KFLS 140805Z 22007KT 26/10 A2998 RMK A01 T02550097  RH  038%=      5-min Rain = 0
KFLS 140810Z 21007KT 25/10 A2998 RMK A01 T02530097  RH  038%=      5-min Rain = 0
KFLS 140815Z 21007KT 25/10 A2998 RMK A01 T02450098  RH  040%=      5-min Rain = 0
KFLS 140820Z 21007KT 24/10 A2998 RMK A01 T02380099  RH  042%=      5-min Rain = 0
KFLS 140825Z 21007KT 24/10 A2998 RMK A01 T02360099  RH  043%=      5-min Rain = 0
KFLS 140830Z 22006KT 25/10 A2998 RMK A01 T02460097  RH  040%=      5-min Rain = 0
KFLS 140835Z 22006KT 25/10 A2998 RMK A01 T02490097  RH  039%=      5-min Rain = 0
KFLS 140840Z 21006KT 24/10 A2998 RMK A01 T02430097  RH  040%=      5-min Rain = 0
KFLS 140845Z 22006KT 25/10 A2998 RMK A01 T02450095  RH  039%=      5-min Rain = 0
KFLS 140850Z 22006KT 25/10 A2998 RMK A01 T02500095  RH  038%=      5-min Rain = 0
KFLS 140855Z 22005KT 25/10 A2998 RMK A01 T02480095  RH  038%=      5-min Rain = 0
KFLS 140900Z 22006KT 25/10 A2998 RMK A01 T02460096  RH  039%=      5-min Rain = 0
KFLS 140905Z 22006KT 24/10 A2998 RMK A01 T02440097  RH  040%=      5-min Rain = 0
KFLS 140910Z 23006KT 24/10 A2998 RMK A01 T02420098  RH  041%=      5-min Rain = 0
KFLS 140915Z 23005KT 24/10 A2998 RMK A01 T02390100  RH  042%=      5-min Rain = 0
KFLS 140920Z 22005KT 24/10 A2998 RMK A01 T02360101  RH  043%=      5-min Rain = 0
KFLS 140925Z 23005KT 24/10 A2998 RMK A01 T02350101  RH  044%=      5-min Rain = 0
KFLS 140930Z 23005KT 23/10 A2998 RMK A01 T02340102  RH  044%=      5-min Rain = 0
KFLS 140935Z 24006KT 23/10 A2998 RMK A01 T02320102  RH  045%=      5-min Rain = 0
KFLS 140940Z 24007KT 23/10 A2998 RMK A01 T02310103  RH  045%=      5-min Rain = 0
KFLS 140945Z 24008KT 23/10 A2998 RMK A01 T02320103  RH  045%=      5-min Rain = 0
KFLS 140950Z 23010KT 24/10 A2998 RMK A01 T02370103  RH  043%=      5-min Rain = 0
KFLS 140955Z 23009KT 24/10 A2998 RMK A01 T02400103  RH  043%=      5-min Rain = 0
KFLS 141000Z 24009KT 24/10 A2998 RMK A01 T02390103  RH  043%=      5-min Rain = 0
KFLS 141005Z 23009KT 24/10 A2998 RMK A01 T02390102  RH  043%=      5-min Rain = 0
KFLS 141010Z 23011KT 25/10 A2998 RMK A01 T02470100  RH  040%=      5-min Rain = 0
KFLS 141015Z 23011KT 25/10 A2998 RMK A01 T02520099  RH  039%=      5-min Rain = 0
KFLS 141020Z 23011KT 25/10 A2998 RMK A01 T02540098  RH  038%=      5-min Rain = 0
KFLS 141025Z 23011KT 25/10 A2998 RMK A01 T02540098  RH  038%=      5-min Rain = 0
KFLS 141030Z 23011KT 25/10 A2998 RMK A01 T02540098  RH  038%=      5-min Rain = 0
KFLS 141035Z 23011KT 25/10 A2998 RMK A01 T02540098  RH  038%=      5-min Rain = 0
KFLS 141040Z 23012KT 26/10 A2998 RMK A01 T02550098  RH  038%=      5-min Rain = 0
KFLS 141045Z 23012KT 25/10 A2998 RMK A01 T02540098  RH  038%=      5-min Rain = 0
KFLS 141050Z 23012KT 26/10 A2998 RMK A01 T02570097  RH  037%=      5-min Rain = 0
KFLS 141055Z 23011KT 26/10 A2998 RMK A01 T02580098  RH  037%=      5-min Rain = 0
KFLS 141100Z 23011KT 26/10 A2998 RMK A01 T02560098  RH  038%=      5-min Rain = 0
KFLS 141105Z 23011KT 26/10 A2998 RMK A01 T02560099  RH  038%=      5-min Rain = 0
KFLS 141110Z 23011KT 25/10 A2998 RMK A01 T02540100  RH  038%=      5-min Rain = 0
KFLS 141115Z 23010KT 25/10 A2998 RMK A01 T02540100  RH  039%=      5-min Rain = 0
KFLS 141120Z 23011KT 25/10 A2998 RMK A01 T02530100  RH  039%=      5-min Rain = 0
KFLS 141125Z 23011KT 25/10 A2998 RMK A01 T02540100  RH  038%=      5-min Rain = 0
KFLS 141130Z 24011KT 25/10 A2998 RMK A01 T02530101  RH  039%=      5-min Rain = 0
KFLS 141135Z 24010KT 25/10 A2999 RMK A01 T02500102  RH  040%=      5-min Rain = 0
KFLS 141140Z 24010KT 25/10 A2999 RMK A01 T02480103  RH  040%=      5-min Rain = 0
KFLS 141145Z 24010KT 25/10 A2999 RMK A01 T02470103  RH  041%=      5-min Rain = 0
KFLS 141150Z 24010KT 25/10 A2999 RMK A01 T02470103  RH  041%=      5-min Rain = 0
KFLS 141155Z 24011KT 25/10 A2999 RMK A01 T02470103  RH  041%=      5-min Rain = 0
KFLS 141200Z 24011KT 25/10 A2999 RMK A01 T02450104  RH  042%=      5-min Rain = 0
KFLS 141205Z 24010KT 24/10 A2999 RMK A01 T02430104  RH  042%=      5-min Rain = 0
KFLS 141210Z 24010KT 24/11 A2999 RMK A01 T02420105  RH  043%=      5-min Rain = 0
KFLS 141215Z 23009KT 24/11 A2999 RMK A01 T02410105  RH  043%=      5-min Rain = 0
KFLS 141220Z 24010KT 24/11 A2999 RMK A01 T02420105  RH  043%=      5-min Rain = 0
KFLS 141225Z 24010KT 24/11 A2999 RMK A01 T02410106  RH  043%=      5-min Rain = 0
KFLS 141230Z 24009KT 24/11 A30 RMK A01 T02410107  RH  044%=      5-min Rain = 0
KFLS 141235Z 24007KT 24/11 A30 RMK A01 T02400108  RH  044%=      5-min Rain = 0
KFLS 141240Z 25006KT 24/11 A30 RMK A01 T02400110  RH  045%=      5-min Rain = 0
KFLS 141245Z 25007KT 24/11 A30 RMK A01 T02400111  RH  045%=      5-min Rain = 0
KFLS 141250Z 24008KT 24/11 A30 RMK A01 T02440111  RH  044%=      5-min Rain = 0
KFLS 141255Z 25007KT 25/11 A30 RMK A01 T02470113  RH  044%=      5-min Rain = 0
KFLS 141300Z 25007KT 25/11 A30 RMK A01 T02510113  RH  043%=      5-min Rain = 0
KFLS 141305Z 25007KT 25/11 A3001 RMK A01 T02530114  RH  042%=      5-min Rain = 0
KFLS 141310Z 25007KT 26/12 A3001 RMK A01 T02550115  RH  042%=      5-min Rain = 0
KFLS 141315Z 25007KT 26/12 A3001 RMK A01 T02590117  RH  042%=      5-min Rain = 0
KFLS 141320Z 26008KT 27/12 A3001 RMK A01 T02650117  RH  040%=      5-min Rain = 0
KFLS 141325Z 26007KT 27/12 A3001 RMK A01 T02730119  RH  039%=      5-min Rain = 0
KFLS 141330Z 26008KT 28/12 A3001 RMK A01 T02780119  RH  038%=      5-min Rain = 0
KFLS 141335Z 26009KT 28/12 A3002 RMK A01 T02760117  RH  038%=      5-min Rain = 0
KFLS 141340Z 26009KT 28/12 A3002 RMK A01 T02750118  RH  038%=      5-min Rain = 0
KFLS 141345Z 26009KT 28/12 A3002 RMK A01 T02780119  RH  038%=      5-min Rain = 0
KFLS 141350Z 26009KT 28/12 A3002 RMK A01 T02780119  RH  038%=      5-min Rain = 0
KFLS 141355Z 27009KT 28/12 A3002 RMK A01 T02820117  RH  037%=      5-min Rain = 0
KFLS 141400Z 26010KT 29/12 A3002 RMK A01 T02850117  RH  036%=      5-min Rain = 0
KFLS 141405Z 26012KT 29/12 A3002 RMK A01 T02930116  RH  034%=      5-min Rain = 0
KFLS 141410Z 26011G17KT 30/12 A3002 RMK A01 T02970118  RH  034%=      5-min Rain = 0
KFLS 141415Z 26013G18KT 30/12 A3002 RMK A01 T03030116  RH  032%=      5-min Rain = 0
KFLS 141420Z 26013KT 31/12 A3002 RMK A01 T03070116  RH  031%=      5-min Rain = 0
KFLS 141425Z 26014KT 31/12 A3002 RMK A01 T03100117  RH  031%=      5-min Rain = 0
KFLS 141430Z 27015KT 31/12 A3002 RMK A01 T03120116  RH  031%=      5-min Rain = 0
KFLS 141435Z 26015KT 31/12 A3002 RMK A01 T03090117  RH  031%=      5-min Rain = 0
KFLS 141440Z 26014KT 31/12 A3001 RMK A01 T03110118  RH  031%=      5-min Rain = 0
KFLS 141445Z 26014G19KT 32/12 A3001 RMK A01 T03200118  RH  030%=      5-min Rain = 0
KFLS 141450Z 27016KT 32/11 A3001 RMK A01 T03200114  RH  029%=      5-min Rain = 0
KFLS 141455Z 26015KT 32/11 A3001 RMK A01 T03200114  RH  029%=      5-min Rain = 0
KFLS 141500Z 26014G19KT 32/12 A3001 RMK A01 T03230117  RH  029%=      5-min Rain = 0
KFLS 141505Z 26016KT 32/11 A3001 RMK A01 T03240114  RH  028%=      5-min Rain = 0
KFLS 141510Z 26013KT 32/12 A3001 RMK A01 T03220116  RH  029%=      5-min Rain = 0
KFLS 141515Z 26012KT 32/12 A3001 RMK A01 T03210119  RH  030%=      5-min Rain = 0
KFLS 141520Z 25014KT 32/12 A3001 RMK A01 T03220115  RH  029%=      5-min Rain = 0
KFLS 141525Z 25014KT 32/11 A3001 RMK A01 T03210113  RH  028%=      5-min Rain = 0
KFLS 141530Z 26015KT 33/11 A3001 RMK A01 T03310108  RH  026%=      5-min Rain = 0
KFLS 141535Z 26014KT 33/11 A3001 RMK A01 T03260106  RH  026%=      5-min Rain = 0
KFLS 141540Z 26012KT 33/11 A3001 RMK A01 T03290113  RH  027%=      5-min Rain = 0
KFLS 141545Z 25011KT 33/12 A3001 RMK A01 T03330116  RH  027%=      5-min Rain = 0
KFLS 141550Z 24011KT 33/12 A3001 RMK A01 T03300116  RH  028%=      5-min Rain = 0
KFLS 141555Z 25011KT 34/11 A3001 RMK A01 T03360113  RH  026%=      5-min Rain = 0
KFLS 141600Z 25010KT 34/11 A3001 RMK A01 T03350114  RH  027%=      5-min Rain = 0
KFLS 141605Z 25010KT 33/11 A3001 RMK A01 T03320112  RH  027%=      5-min Rain = 0
KFLS 141610Z 24009KT 33/11 A3001 RMK A01 T03260105  RH  026%=      5-min Rain = 0
KFLS 141615Z 24007KT 32/11 A3001 RMK A01 T03240106  RH  027%=      5-min Rain = 0
KFLS 141620Z 25005KT 32/10 A3001 RMK A01 T03240104  RH  026%=      5-min Rain = 0
KFLS 141625Z 26005KT 32/10 A3001 RMK A01 T03240103  RH  026%=      5-min Rain = 0
KFLS 141630Z 21005KT 32/10 A3001 RMK A01 T03220104  RH  027%=      5-min Rain = 0
KFLS 141635Z 23003KT 33/10 A3001 RMK A01 T03250103  RH  026%=      5-min Rain = 0
KFLS 141640Z 34003KT 33/10 A3001 RMK A01 T03280102  RH  025%=      5-min Rain = 0
KFLS 141645Z 28011G22KT 34/09 A3001 RMK A01 T03400090  RH  022%=      5-min Rain = 0
KFLS 141650Z 25012G17KT 36/07 A3001 RMK A01 T03550071  RH  018%=      5-min Rain = 0
KFLS 141655Z 24016G23KT 36/06 A3001 RMK A01 T03610060  RH  016%=      5-min Rain = 0
KFLS 141700Z 24021G26KT 37/06 A30 RMK A01 T03700056  RH  015%=      5-min Rain = 0
KFLS 141705Z 25015KT 37/06 A3001 RMK A01 T03720064  RH  015%=      5-min Rain = 0
KFLS 141710Z 25016KT 38/07 A3001 RMK A01 T03770072  RH  016%=      5-min Rain = 0
KFLS 141715Z 25016KT 38/07 A3001 RMK A01 T03800070  RH  015%=      5-min Rain = 0
KFLS 141720Z 25015KT 39/07 A3001 RMK A01 T03880066  RH  014%=      5-min Rain = 0
KFLS 141725Z 25014KT 40/07 A3001 RMK A01 T03960073  RH  014%=      5-min Rain = 0
KFLS 141730Z 25014KT 39/07 A3001 RMK A01 T03890073  RH  015%=      5-min Rain = 0
KFLS 141735Z 24014KT 38/07 A3001 RMK A01 T03790074  RH  016%=      5-min Rain = 0
KFLS 141740Z 25012G17KT 37/08 A3001 RMK A01 T03720078  RH  017%=      5-min Rain = 0
KFLS 141745Z 24011KT 37/08 A3001 RMK A01 T03650082  RH  018%=      5-min Rain = 0
KFLS 141750Z 24010KT 36/08 A30 RMK A01 T03610083  RH  019%=      5-min Rain = 0
KFLS 141755Z 25010KT 36/08 A30 RMK A01 T03640083  RH  018%=      5-min Rain = 0
KFLS 141800Z 25010KT 37/08 A30 RMK A01 T03660083  RH  018%=      5-min Rain = 0
KFLS 141805Z 25010KT 37/08 A30 RMK A01 T03710079  RH  017%=      5-min Rain = 0
KFLS 141810Z 24009KT 37/08 A30 RMK A01 T03720081  RH  017%=      5-min Rain = 0
KFLS 141815Z 24008KT 38/09 A30 RMK A01 T03800085  RH  017%=      5-min Rain = 0
KFLS 141820Z 24007KT 39/09 A30 RMK A01 T03870088  RH  017%=      5-min Rain = 0
KFLS 141825Z 25008KT 39/09 A30 RMK A01 T03900089  RH  017%=      5-min Rain = 0
KFLS 141830Z 25008KT 40/09 A2999 RMK A01 T03980089  RH  016%=      5-min Rain = 0
KFLS 141835Z 25011G16KT 40/08 A2999 RMK A01 T03950079  RH  015%=      5-min Rain = 0
KFLS 141840Z 25011G17KT 39/07 A2999 RMK A01 T03880067  RH  014%=      5-min Rain = 0
KFLS 141845Z 24011KT 39/06 A2999 RMK A01 T03910062  RH  014%=      5-min Rain = 0
KFLS 141850Z 26009KT 39/06 A2999 RMK A01 T03940063  RH  014%=      5-min Rain = 0
KFLS 141855Z 24008G13KT 40/06 A2998 RMK A01 T03950064  RH  014%=      5-min Rain = 0
KFLS 141900Z 28009KT 39/07 A2998 RMK A01 T03940067  RH  014%=      5-min Rain = 0
KFLS 141905Z 28009KT 40/07 A2998 RMK A01 T03960067  RH  014%=      5-min Rain = 0
KFLS 141910Z 27008KT 39/07 A2998 RMK A01 T03890067  RH  014%=      5-min Rain = 0
KFLS 141915Z 28007KT 39/06 A2998 RMK A01 T03890061  RH  014%=      5-min Rain = 0
KFLS 141920Z 25008G13KT 39/06 A2998 RMK A01 T03900059  RH  013%=      5-min Rain = 0
KFLS 141925Z 27007G12KT 39/06 A2997 RMK A01 T03920063  RH  014%=      5-min Rain = 0
KFLS 141930Z 24006KT 40/06 A2997 RMK A01 T04000056  RH  013%=      5-min Rain = 0
KFLS 141935Z 25009G15KT 40/06 A2997 RMK A01 T04010058  RH  013%=      5-min Rain = 0
KFLS 141940Z 26009G15KT 40/06 A2997 RMK A01 T04000055  RH  012%=      5-min Rain = 0
KFLS 141945Z 29006G11KT 41/05 A2996 RMK A01 T04060054  RH  012%=      5-min Rain = 0
KFLS 141950Z 27008G13KT 41/05 A2996 RMK A01 T04050049  RH  012%=      5-min Rain = 0
KFLS 141955Z 27009G14KT 41/05 A2996 RMK A01 T04120050  RH  011%=      5-min Rain = 0
KFLS 142000Z 27008KT 41/05 A2995 RMK A01 T04110049  RH  011%=      5-min Rain = 0
KFLS 142005Z 24006G12KT 40/05 A2995 RMK A01 T03980049  RH  012%=      5-min Rain = 0
KFLS 142010Z 24006G13KT 41/05 A2995 RMK A01 T04090048  RH  011%=      5-min Rain = 0
KFLS 142015Z 25006G14KT 41/05 A2995 RMK A01 T04120050  RH  011%=      5-min Rain = 0
KFLS 142020Z 26007G14KT 41/05 A2994 RMK A01 T04100053  RH  012%=      5-min Rain = 0
KFLS 142025Z 21010G18KT 41/06 A2994 RMK A01 T04140056  RH  012%=      5-min Rain = 0
KFLS 142030Z 22011G16KT 40/06 A2994 RMK A01 T04040061  RH  013%=      5-min Rain = 0
KFLS 142035Z 19010G16KT 40/07 A2994 RMK A01 T03960065  RH  014%=      5-min Rain = 0
KFLS 142040Z 24011KT 42/06 A2993 RMK A01 T04170057  RH  012%=      5-min Rain = 0
KFLS 142045Z 25010KT 41/05 A2993 RMK A01 T04120053  RH  011%=      5-min Rain = 0
KFLS 142050Z 22010G15KT 41/06 A2993 RMK A01 T04130055  RH  012%=      5-min Rain = 0
KFLS 142055Z 26010G16KT 41/05 A2993 RMK A01 T04130053  RH  011%=      5-min Rain = 0
KFLS 142100Z 25010G15KT 41/05 A2993 RMK A01 T04120050  RH  011%=      5-min Rain = 0
KFLS 142105Z 26009G15KT 41/05 A2992 RMK A01 T04060050  RH  012%=      5-min Rain = 0
KFLS 142110Z 28007G12KT 41/05 A2992 RMK A01 T04070050  RH  012%=      5-min Rain = 0
KFLS 142115Z 28008KT 42/05 A2992 RMK A01 T04180051  RH  011%=      5-min Rain = 0
KFLS 142120Z 23009G15KT 42/05 A2992 RMK A01 T04150050  RH  011%=      5-min Rain = 0
KFLS 142125Z 23010KT 41/05 A2992 RMK A01 T04130049  RH  011%=      5-min Rain = 0
KFLS 142130Z 25010G16KT 42/05 A2992 RMK A01 T04200049  RH  011%=      5-min Rain = 0
KFLS 142135Z 26010KT 40/05 A2992 RMK A01 T03990046  RH  012%=      5-min Rain = 0
KFLS 142140Z 24009KT 39/05 A2992 RMK A01 T03940048  RH  012%=      5-min Rain = 0
KFLS 142145Z 35012G21KT 39/06 A2994 RMK A01 T03870057  RH  014%=      5-min Rain = 0
KFLS 142150Z 02017G24KT 36/08 A2995 RMK A01 T03550083  RH  019%=      5-min Rain = 0
KFLS 142155Z 03024G36KT 34/09 A2992 RMK A01 T03440092  RH  022%=      5-min Rain = 0
KFLS 142200Z 02025G32KT 33/12 A2993 RMK A01 T03290119  RH  029%=      5-min Rain = 0
KFLS 142205Z 03024G29KT 29/15 A2994 RMK A01 T02900145  RH  042%=      5-min Rain = 0
KFLS 142210Z 02019G28KT 27/15 A2995 RMK A01 T02740153  RH  049%=      5-min Rain = 0.02
KFLS 142215Z 08014G20KT 27/17 A2995 RMK A01 T02690171  RH  056%=      5-min Rain = 0.02
KFLS 142220Z 07017G22KT 28/18 A2995 RMK A01 T02770178  RH  056%=      5-min Rain = 0
KFLS 142225Z 06019G26KT 29/16 A2995 RMK A01 T02870161  RH  048%=      5-min Rain = 0.01
KFLS 142230Z 06020G27KT 29/15 A2995 RMK A01 T02860149  RH  044%=      5-min Rain = 0
KFLS 142235Z 07016KT 29/15 A2996 RMK A01 T02870148  RH  044%=      5-min Rain = 0
KFLS 142240Z 07019KT 29/15 A2996 RMK A01 T02900148  RH  043%=      5-min Rain = 0
KFLS 142245Z 07020G26KT 30/14 A2996 RMK A01 T02960142  RH  040%=      5-min Rain = 0
KFLS 142250Z 06017G22KT 31/13 A2996 RMK A01 T03060130  RH  035%=      5-min Rain = 0
KFLS 142255Z 08019G26KT 31/14 A2996 RMK A01 T03070135  RH  036%=      5-min Rain = 0
KFLS 142300Z 08016G24KT 30/14 A2996 RMK A01 T03030138  RH  037%=      5-min Rain = 0
KFLS 142305Z 08015G21KT 31/14 A2996 RMK A01 T03050136  RH  037%=      5-min Rain = 0
KFLS 142310Z 08016G21KT 31/12 A2996 RMK A01 T03110122  RH  032%=      5-min Rain = 0
KFLS 142315Z 07015G21KT 32/12 A2995 RMK A01 T03190121  RH  030%=      5-min Rain = 0
KFLS 142320Z 07016KT 32/11 A2996 RMK A01 T03180111  RH  029%=      5-min Rain = 0
KFLS 142325Z 07015G20KT 32/10 A2996 RMK A01 T03200104  RH  027%=      5-min Rain = 0
KFLS 142330Z 07016G21KT 32/10 A2997 RMK A01 T03190102  RH  027%=      5-min Rain = 0
KFLS 142335Z 07014KT 32/10 A2997 RMK A01 T03180102  RH  027%=      5-min Rain = 0
KFLS 142340Z 06015KT 32/10 A2997 RMK A01 T03160100  RH  027%=      5-min Rain = 0
KFLS 142345Z 05013G18KT 32/10 A2997 RMK A01 T03170097  RH  026%=      5-min Rain = 0
KFLS 142350Z 06015G21KT 32/09 A2997 RMK A01 T03200091  RH  025%=      5-min Rain = 0
KFLS 142355Z 05015KT 32/09 A2998 RMK A01 T03190094  RH  025%=      5-min Rain = 0
KFLS 150000Z 05015KT 31/11 A2998 RMK A01 T03110106  RH  029%=      5-min Rain = 0
KFLS 150005Z 04014KT 31/11 A2998 RMK A01 T03070111  RH  030%=      5-min Rain = 0
KFLS 150010Z 05014G19KT 31/11 A2998 RMK A01 T03070108  RH  030%=      5-min Rain = 0
KFLS 150015Z 04013KT 31/11 A2999 RMK A01 T03090105  RH  029%=      5-min Rain = 0
KFLS 150020Z 02014G19KT 31/11 A30 RMK A01 T03060113  RH  031%=      5-min Rain = 0
KFLS 150025Z 04014G19KT 31/10 A3001 RMK A01 T03070101  RH  028%=      5-min Rain = 0
KFLS 150030Z 05013G19KT 31/09 A3002 RMK A01 T03080094  RH  027%=      5-min Rain = 0
KFLS 150035Z 07014KT 31/09 A3003 RMK A01 T03070094  RH  027%=      5-min Rain = 0
KFLS 150040Z 07016G21KT 31/09 A3004 RMK A01 T03060093  RH  027%=      5-min Rain = 0
KFLS 150045Z 07017G22KT 31/10 A3004 RMK A01 T03050098  RH  028%=      5-min Rain = 0
KFLS 150050Z 07013KT 30/10 A3004 RMK A01 T03020104  RH  030%=      5-min Rain = 0
KFLS 150055Z 07012KT 30/10 A3003 RMK A01 T03010099  RH  029%=      5-min Rain = 0
KFLS 150100Z 09015G21KT 30/10 A3003 RMK A01 T03000099  RH  029%=      5-min Rain = 0
KFLS 150105Z 09016G21KT 30/10 A3002 RMK A01 T02970103  RH  030%=      5-min Rain = 0
KFLS 150110Z 10011G16KT 29/11 A3002 RMK A01 T02930106  RH  032%=      5-min Rain = 0
KFLS 150115Z 09011KT 29/11 A3002 RMK A01 T02910108  RH  033%=      5-min Rain = 0
KFLS 150120Z 09014KT 29/11 A3003 RMK A01 T02900108  RH  033%=      5-min Rain = 0
KFLS 150125Z 09013KT 29/11 A3003 RMK A01 T02880109  RH  034%=      5-min Rain = 0
KFLS 150130Z 11012KT 29/11 A3003 RMK A01 T02870110  RH  034%=      5-min Rain = 0
KFLS 150135Z 11014KT 29/11 A3003 RMK A01 T02870111  RH  034%=      5-min Rain = 0
KFLS 150140Z 11013KT 29/11 A3003 RMK A01 T02870109  RH  034%=      5-min Rain = 0
KFLS 150145Z 11014G20KT 29/10 A3003 RMK A01 T02910103  RH  032%=      5-min Rain = 0
KFLS 150150Z 12009G14KT 29/10 A3003 RMK A01 T02910103  RH  032%=      5-min Rain = 0
KFLS 150155Z 13010KT 29/10 A3003 RMK A01 T02920100  RH  031%=      5-min Rain = 0
KFLS 150200Z 13011KT 30/09 A3003 RMK A01 T02960091  RH  028%=      5-min Rain = 0
KFLS 150205Z 13010KT 30/09 A3003 RMK A01 T03000086  RH  027%=      5-min Rain = 0
KFLS 150210Z 15009KT 30/09 A3003 RMK A01 T02990086  RH  027%=      5-min Rain = 0
KFLS 150215Z 20010KT 30/09 A3004 RMK A01 T02960089  RH  028%=      5-min Rain = 0
KFLS 150220Z 21011KT 30/08 A3003 RMK A01 T02990081  RH  026%=      5-min Rain = 0
KFLS 150225Z 19010KT 30/09 A3003 RMK A01 T03000085  RH  026%=      5-min Rain = 0
KFLS 150230Z 19011KT 30/09 A3003 RMK A01 T02960086  RH  027%=      5-min Rain = 0
KFLS 150235Z 18009KT 30/08 A3002 RMK A01 T02980084  RH  027%=      5-min Rain = 0
KFLS 150240Z 17005KT 30/08 A3002 RMK A01 T03000083  RH  026%=      5-min Rain = 0
KFLS 150245Z 19009KT 31/08 A3003 RMK A01 T03090077  RH  024%=      5-min Rain = 0
KFLS 150250Z 21008KT 31/08 A3003 RMK A01 T03100080  RH  024%=      5-min Rain = 0
KFLS 150255Z 22010KT 31/08 A3003 RMK A01 T03050081  RH  025%=      5-min Rain = 0
KFLS 150300Z 23011KT 29/10 A3003 RMK A01 T02900100  RH  031%=      5-min Rain = 0
KFLS 150305Z 22012KT 29/10 A3001 RMK A01 T02850103  RH  033%=      5-min Rain = 0
KFLS 150310Z 22008G13KT 29/10 A3001 RMK A01 T02900099  RH  031%=      5-min Rain = 0
KFLS 150315Z 24006KT 29/10 A3002 RMK A01 T02920095  RH  030%=      5-min Rain = 0
KFLS 150320Z 26005KT 29/10 A3002 RMK A01 T02910095  RH  030%=      5-min Rain = 0
KFLS 150325Z 29005KT 28/10 A3002 RMK A01 T02840102  RH  033%=      5-min Rain = 0
KFLS 150330Z 24003KT 28/10 A3001 RMK A01 T02810101  RH  033%=      5-min Rain = 0
KFLS 150335Z 15002KT 28/10 A3001 RMK A01 T02770103  RH  034%=      5-min Rain = 0
KFLS 150340Z 16004KT 27/10 A3001 RMK A01 T02730100  RH  034%=      5-min Rain = 0
KFLS 150345Z 17003KT 28/10 A3002 RMK A01 T02780097  RH  033%=      5-min Rain = 0
KFLS 150350Z 19003KT 28/10 A3003 RMK A01 T02770097  RH  033%=      5-min Rain = 0
KFLS 150355Z 19002KT 27/11 A3003 RMK A01 T02740105  RH  035%=      5-min Rain = 0
KFLS 150400Z 34002KT 27/11 A3003 RMK A01 T02730113  RH  038%=      5-min Rain = 0
KFLS 150405Z 00000KT 28/10 A3003 RMK A01 T02750101  RH  034%=      5-min Rain = 0
KFLS 150410Z 36000KT 28/11 A3004 RMK A01 T02770108  RH  035%=      5-min Rain = 0
KFLS 150415Z 31000KT 28/10 A3004 RMK A01 T02760100  RH  034%=      5-min Rain = 0
KFLS 150420Z 31002KT 28/11 A3004 RMK A01 T02750110  RH  036%=      5-min Rain = 0
KFLS 150425Z 31001KT 27/11 A3004 RMK A01 T02730108  RH  036%=      5-min Rain = 0
KFLS 150430Z 31003KT 27/11 A3004 RMK A01 T02700110  RH  037%=      5-min Rain = 0
KFLS 150435Z 30009KT 26/12 A3005 RMK A01 T02630119  RH  041%=      5-min Rain = 0
KFLS 150440Z 28009KT 26/12 A3005 RMK A01 T02560123  RH  045%=      5-min Rain = 0
KFLS 150445Z 24008KT 27/11 A3004 RMK A01 T02680108  RH  037%=      5-min Rain = 0
KFLS 150450Z 23007KT 28/10 A3004 RMK A01 T02770102  RH  034%=      5-min Rain = 0
KFLS 150455Z 22006KT 27/11 A3004 RMK A01 T02710105  RH  036%=      5-min Rain = 0

Page generated in 0.0092 seconds.